Time;durP1;ratioP1;P1;durP2;ratioP2;P2;SDS_P1;SDS_P2;PMS_P1;PMS_P2;Temp;Humidity;BMP_temperature;BMP_pressure;BME280_temperature;BME280_humidity;BME280_pressure;Samples;Min_cycle;Max_cycle;Signal;HPM_P1;HPM_P2
2022/11/08 00:01:45;;;;;;;10.98;2.92;;;13.30;99.90;;;;;;5049080;28;20406;-64
2022/11/08 00:04:13;;;;;;;12.73;3.08;;;13.30;99.90;;;;;;5070529;28;20024;-64
2022/11/08 00:14:53;;;;;;;12.10;2.78;;;13.30;99.90;;;;;;5071863;28;20267;-65
2022/11/08 00:17:21;;;;;;;6.72;2.83;;;13.30;99.90;;;;;;5065711;28;20074;-65
2022/11/08 00:19:47;;;;;;;5.13;2.83;;;13.30;99.90;;;;;;5072286;28;20032;-64
2022/11/08 00:22:14;;;;;;;6.88;3.00;;;13.30;99.90;;;;;;5052411;28;20090;-64
2022/11/08 00:24:39;;;;;;;9.60;2.97;;;13.30;99.90;;;;;;5071074;28;20041;-64
2022/11/08 00:27:07;;;;;;;12.20;2.58;;;13.20;99.90;;;;;;5072037;28;20042;-64
2022/11/08 00:29:34;;;;;;;11.45;3.00;;;13.30;99.90;;;;;;5072029;28;20028;-64
2022/11/08 00:32:01;;;;;;;12.27;2.70;;;13.20;99.90;;;;;;5068284;28;20073;-64
2022/11/08 00:34:27;;;;;;;14.40;3.38;;;13.20;99.90;;;;;;5051649;28;20577;-64
2022/11/08 00:36:52;;;;;;;13.45;2.90;;;13.20;99.90;;;;;;5070136;28;20115;-64
2022/11/08 00:39:18;;;;;;;12.43;3.28;;;13.20;99.90;;;;;;5050961;28;20292;-64
2022/11/08 00:41:44;;;;;;;11.30;3.00;;;13.10;99.90;;;;;;5034317;28;20044;-64
2022/11/08 00:44:10;;;;;;;10.23;3.70;;;13.10;99.90;;;;;;5069978;28;20389;-64
2022/11/08 00:46:37;;;;;;;8.05;2.75;;;13.10;99.90;;;;;;5051581;28;20039;-64
2022/11/08 00:49:04;;;;;;;10.52;3.00;;;13.10;99.90;;;;;;5069446;28;20532;-64
2022/11/08 00:51:29;;;;;;;10.32;3.15;;;13.00;99.90;;;;;;5065926;28;20033;-64
2022/11/08 00:53:55;;;;;;;7.90;2.97;;;13.00;99.90;;;;;;5049117;28;20402;-64
2022/11/08 00:56:21;;;;;;;12.93;3.10;;;12.90;99.90;;;;;;5068711;28;20040;-64
2022/11/08 00:58:46;;;;;;;9.98;2.83;;;12.90;99.90;;;;;;5064279;28;20406;-64
2022/11/08 01:01:15;;;;;;;11.00;2.78;;;12.90;99.90;;;;;;5067206;28;20029;-64
2022/11/08 01:03:41;;;;;;;12.35;3.22;;;12.90;99.90;;;;;;5070383;28;20032;-64
2022/11/08 01:06:08;;;;;;;14.20;3.22;;;12.90;99.90;;;;;;5061992;28;20028;-65
2022/11/08 01:08:34;;;;;;;9.90;3.22;;;12.80;99.90;;;;;;5068097;28;20498;-65
2022/11/08 01:11:05;;;;;;;9.55;2.80;;;12.80;99.90;;;;;;5058235;28;20033;-64
2022/11/08 01:13:32;;;;;;;14.52;3.58;;;12.80;99.90;;;;;;5069424;28;20040;-64
2022/11/08 01:15:57;;;;;;;8.40;3.20;;;12.80;99.90;;;;;;5056056;28;20041;-64
2022/11/08 01:18:23;;;;;;;9.32;2.80;;;12.80;99.90;;;;;;5069084;28;20048;-65
2022/11/08 01:20:49;;;;;;;14.25;3.10;;;12.70;99.90;;;;;;5067585;28;20135;-64
2022/11/08 01:23:16;;;;;;;14.15;3.10;;;12.70;99.90;;;;;;5067366;28;20040;-64
2022/11/08 01:25:45;;;;;;;9.18;3.00;;;12.70;99.90;;;;;;5070258;28;20078;-64
2022/11/08 01:28:11;;;;;;;12.98;3.42;;;12.70;99.90;;;;;;5068434;28;20039;-64
2022/11/08 01:30:39;;;;;;;11.77;3.15;;;12.60;99.90;;;;;;5050978;28;20393;-65
2022/11/08 01:33:05;;;;;;;11.10;3.35;;;12.60;99.90;;;;;;5069714;28;20160;-65
2022/11/08 01:35:31;;;;;;;9.48;3.03;;;12.60;99.90;;;;;;5050403;28;20044;-64
2022/11/08 01:37:58;;;;;;;11.23;2.97;;;12.60;99.90;;;;;;5061900;28;20398;-64
2022/11/08 01:40:25;;;;;;;7.82;2.80;;;12.50;99.90;;;;;;5049932;28;20036;-65
2022/11/08 01:42:52;;;;;;;5.85;3.08;;;12.50;99.90;;;;;;5069141;28;20497;-64
2022/11/08 01:45:55;;;;;;;10.25;3.00;;;12.50;99.90;;;;;;5051945;28;20448;-64
2022/11/08 01:48:21;;;;;;;7.85;3.13;;;12.50;99.90;;;;;;5052485;28;20174;-64
2022/11/08 01:50:47;;;;;;;9.25;2.63;;;12.50;99.90;;;;;;5065974;28;20504;-64
2022/11/08 01:53:13;;;;;;;11.13;3.60;;;12.50;99.90;;;;;;5049639;28;20037;-64
2022/11/08 01:55:39;;;;;;;9.35;3.42;;;12.40;99.90;;;;;;5070356;28;20105;-64
2022/11/08 01:58:16;;;;;;;8.82;2.97;;;12.50;99.90;;;;;;5070532;28;20426;-64
2022/11/08 02:00:41;;;;;;;11.73;2.92;;;12.50;99.90;;;;;;5045054;28;20068;-64
2022/11/08 02:03:11;;;;;;;6.97;2.65;;;12.50;99.90;;;;;;5051856;28;20141;-64
2022/11/08 02:05:38;;;;;;;10.73;3.05;;;12.50;99.90;;;;;;5069323;28;20041;-64
2022/11/08 02:08:15;;;;;;;12.07;3.10;;;12.50;99.90;;;;;;5069503;28;20099;-64
2022/11/08 02:10:43;;;;;;;10.75;3.00;;;12.50;99.90;;;;;;5069097;28;20033;-64
2022/11/08 02:13:13;;;;;;;6.63;2.70;;;12.50;99.90;;;;;;5071409;28;20079;-64
2022/11/08 02:15:39;;;;;;;9.98;2.78;;;12.50;99.90;;;;;;5068217;28;20043;-64
2022/11/08 02:18:05;;;;;;;13.00;3.88;;;12.50;99.90;;;;;;5074872;28;20490;-64
2022/11/08 02:20:31;;;;;;;12.25;3.08;;;12.50;99.90;;;;;;5072878;28;20040;-64
2022/11/08 02:23:18;;;;;;;8.98;2.75;;;12.50;99.90;;;;;;5073133;28;20033;-64
2022/11/08 02:25:44;;;;;;;10.68;3.05;;;12.50;99.90;;;;;;5075135;28;20054;-64
2022/11/08 02:28:09;;;;;;;12.48;3.30;;;12.50;99.90;;;;;;5072625;28;20032;-64
2022/11/08 02:30:36;;;;;;;8.63;3.10;;;12.40;99.90;;;;;;5072240;28;20036;-64
2022/11/08 02:33:19;;;;;;;11.88;2.92;;;12.40;99.90;;;;;;5072522;28;20116;-64
2022/11/08 02:35:52;;;;;;;11.20;3.03;;;12.40;99.90;;;;;;5052603;28;20132;-64
2022/11/08 02:38:18;;;;;;;8.13;3.13;;;12.30;99.90;;;;;;5073312;28;20068;-64
2022/11/08 02:40:51;;;;;;;8.55;3.13;;;12.30;99.90;;;;;;5062487;28;20047;-64
2022/11/08 02:43:17;;;;;;;8.65;2.85;;;12.30;99.90;;;;;;5054203;28;20037;-64
2022/11/08 02:45:43;;;;;;;6.78;2.72;;;12.30;99.90;;;;;;5074466;28;20086;-64
2022/11/08 02:48:10;;;;;;;10.75;3.05;;;12.30;99.90;;;;;;5071113;28;20036;-65
2022/11/08 02:50:35;;;;;;;9.25;3.30;;;12.20;99.90;;;;;;5072214;28;20037;-64
2022/11/08 02:53:01;;;;;;;9.52;2.83;;;12.20;99.90;;;;;;5073452;28;20043;-64
2022/11/08 02:55:28;;;;;;;9.02;3.40;;;12.30;99.90;;;;;;5072674;28;20036;-64
2022/11/08 02:57:54;;;;;;;6.40;2.50;;;12.20;99.90;;;;;;5073597;28;20043;-65
2022/11/08 03:00:19;;;;;;;7.90;2.70;;;12.20;99.90;;;;;;5050572;28;20041;-64
2022/11/08 03:02:50;;;;;;;9.35;2.97;;;12.20;99.90;;;;;;5073583;28;20025;-64
2022/11/08 03:05:16;;;;;;;10.27;3.40;;;12.20;99.90;;;;;;5051764;28;20056;-64
2022/11/08 03:07:42;;;;;;;10.40;2.80;;;12.20;99.90;;;;;;5053123;28;20397;-64
2022/11/08 03:10:09;;;;;;;14.35;3.03;;;12.20;99.90;;;;;;5070775;28;20032;-64
2022/11/08 03:12:34;;;;;;;13.30;2.90;;;12.20;99.90;;;;;;5072371;28;20044;-64
2022/11/08 03:15:00;;;;;;;11.38;2.72;;;12.20;99.90;;;;;;5052048;28;20037;-64
2022/11/08 03:17:25;;;;;;;7.68;2.63;;;12.20;99.90;;;;;;5068260;28;20425;-64
2022/11/08 03:19:52;;;;;;;9.52;2.63;;;12.10;99.90;;;;;;5048195;28;20040;-64
2022/11/08 03:22:18;;;;;;;9.15;2.67;;;12.10;99.90;;;;;;5071454;28;20033;-64
2022/11/08 03:24:43;;;;;;;8.63;2.58;;;12.10;99.90;;;;;;5072090;28;20036;-65
2022/11/08 03:27:09;;;;;;;9.95;2.90;;;12.00;99.90;;;;;;5071426;28;20024;-65
2022/11/08 03:29:35;;;;;;;8.85;2.90;;;12.10;99.90;;;;;;5068658;28;20044;-64
2022/11/08 03:32:00;;;;;;;7.90;2.83;;;12.10;99.90;;;;;;5077722;28;20068;-64
2022/11/08 03:34:26;;;;;;;5.85;2.47;;;12.10;99.90;;;;;;5073103;28;20058;-65
2022/11/08 03:36:51;;;;;;;8.70;2.83;;;12.00;99.90;;;;;;5064399;28;20036;-65
2022/11/08 03:39:17;;;;;;;10.48;3.53;;;12.10;99.90;;;;;;5070938;28;20515;-64
2022/11/08 03:41:43;;;;;;;8.30;2.50;;;12.10;99.90;;;;;;5071531;28;20033;-65
2022/11/08 03:44:09;;;;;;;6.75;2.63;;;12.10;99.90;;;;;;5072898;28;20379;-65
2022/11/08 03:46:34;;;;;;;7.35;2.63;;;12.10;99.90;;;;;;5071253;28;20171;-64
2022/11/08 03:49:00;;;;;;;9.40;3.03;;;12.00;99.90;;;;;;5078052;28;20043;-65
2022/11/08 03:51:25;;;;;;;9.07;2.63;;;12.00;99.90;;;;;;5071555;28;20094;-64
2022/11/08 03:53:51;;;;;;;5.28;2.03;;;12.00;99.90;;;;;;5071783;28;20036;-64
2022/11/08 03:56:17;;;;;;;7.85;2.75;;;12.00;99.90;;;;;;5071101;28;20405;-64
2022/11/08 03:58:42;;;;;;;8.55;2.30;;;12.00;99.90;;;;;;5069859;28;20029;-65
2022/11/08 04:01:08;;;;;;;9.80;2.80;;;12.00;99.90;;;;;;5070462;28;20037;-65
2022/11/08 04:03:34;;;;;;;6.63;2.92;;;11.90;99.90;;;;;;5070819;28;20024;-64
2022/11/08 04:06:00;;;;;;;9.40;2.30;;;11.90;99.90;;;;;;5059487;28;20033;-64
2022/11/08 04:08:27;;;;;;;10.93;3.05;;;11.90;99.90;;;;;;5070607;28;20044;-64
2022/11/08 04:15:13;;;;;;;7.10;2.60;;;11.90;99.90;;;;;;5069645;28;20044;-64
2022/11/08 04:16:29;;;;;;;7.18;2.58;;;11.90;99.90;;;;;;5070603;28;20098;-64
2022/11/08 04:21:45;;;;;;;7.75;2.88;;;11.90;99.90;;;;;;5052752;28;20107;-65
2022/11/08 04:24:11;;;;;;;7.68;2.90;;;11.90;99.90;;;;;;5071811;28;20048;-65
2022/11/08 04:26:38;;;;;;;9.38;2.80;;;11.80;99.90;;;;;;5071560;28;20041;-64
2022/11/08 04:29:04;;;;;;;6.57;2.50;;;11.90;99.90;;;;;;5050581;28;20112;-64
2022/11/08 04:31:29;;;;;;;5.88;2.67;;;11.90;99.90;;;;;;5052802;28;20128;-64
2022/11/08 04:33:55;;;;;;;7.45;2.60;;;11.90;99.90;;;;;;5067289;28;20036;-64
2022/11/08 04:36:21;;;;;;;8.23;2.90;;;11.80;99.90;;;;;;5070295;28;20489;-64
2022/11/08 04:38:48;;;;;;;6.20;2.65;;;11.80;99.90;;;;;;5071747;28;20048;-64
2022/11/08 04:41:15;;;;;;;10.50;2.70;;;11.80;99.90;;;;;;5052015;28;20129;-64
2022/11/08 04:43:41;;;;;;;5.55;2.65;;;11.80;99.90;;;;;;5066996;28;20536;-64
2022/11/08 04:46:09;;;;;;;8.45;3.00;;;11.70;99.90;;;;;;5070845;28;20060;-64
2022/11/08 04:48:35;;;;;;;9.45;2.72;;;11.70;99.90;;;;;;5070598;28;20032;-64
2022/11/08 04:51:16;;;;;;;6.47;2.40;;;11.80;99.90;;;;;;5071192;28;20086;-64
2022/11/08 04:53:41;;;;;;;11.13;2.67;;;11.80;99.90;;;;;;5045457;28;20049;-64
2022/11/08 04:56:10;;;;;;;6.97;2.80;;;11.70;99.90;;;;;;5069069;28;20048;-65
2022/11/08 04:58:38;;;;;;;8.88;2.65;;;11.70;99.90;;;;;;5070376;28;20037;-64
2022/11/08 05:01:06;;;;;;;6.72;2.55;;;11.70;99.90;;;;;;5068230;28;20048;-64
2022/11/08 05:03:32;;;;;;;7.93;2.42;;;11.70;99.90;;;;;;5047032;28;20036;-64
2022/11/08 05:06:02;;;;;;;8.60;2.30;;;11.60;99.90;;;;;;5071029;28;20503;-64
2022/11/08 05:08:28;;;;;;;6.22;2.25;;;11.60;99.90;;;;;;5070104;28;20603;-64
2022/11/08 05:11:02;;;;;;;7.13;2.50;;;11.60;99.90;;;;;;5069245;28;20119;-64
2022/11/08 05:13:28;;;;;;;6.72;2.30;;;11.60;99.90;;;;;;5068522;28;20508;-65
2022/11/08 05:15:53;;;;;;;6.68;2.47;;;11.60;99.90;;;;;;5071224;28;20029;-65
2022/11/08 05:18:19;;;;;;;6.63;2.05;;;11.60;99.90;;;;;;5048463;28;20097;-64
2022/11/08 05:23:29;;;;;;;9.52;2.42;;;11.50;99.90;;;;;;5052696;28;20397;-63
2022/11/08 05:25:56;;;;;;;10.15;2.38;;;11.50;99.90;;;;;;5069177;28;20036;-64
2022/11/08 05:28:22;;;;;;;6.38;2.60;;;11.50;99.90;;;;;;5069431;28;20044;-64
2022/11/08 05:30:52;;;;;;;6.75;2.10;;;11.50;99.90;;;;;;5071305;28;20042;-64
2022/11/08 05:33:18;;;;;;;9.10;2.07;;;11.50;99.90;;;;;;5066973;28;20055;-64
2022/11/08 05:35:43;;;;;;;5.38;2.22;;;11.40;99.90;;;;;;5069763;28;20036;-64
2022/11/08 05:38:09;;;;;;;8.20;2.55;;;11.40;99.90;;;;;;5070132;28;20044;-64
2022/11/08 05:40:35;;;;;;;8.10;2.50;;;11.40;99.90;;;;;;5071084;28;20139;-64
2022/11/08 05:43:00;;;;;;;4.70;2.20;;;11.30;99.90;;;;;;5067645;28;20127;-65
2022/11/08 05:45:27;;;;;;;9.40;2.70;;;11.40;99.90;;;;;;5066676;28;20033;-64
2022/11/08 05:47:53;;;;;;;6.70;2.30;;;11.40;99.90;;;;;;5048417;28;20033;-64
2022/11/08 05:50:19;;;;;;;9.20;2.75;;;11.30;99.90;;;;;;5070768;28;20512;-64
2022/11/08 05:52:44;;;;;;;7.15;2.63;;;11.30;99.90;;;;;;5049076;28;20101;-64
2022/11/08 05:55:10;;;;;;;8.88;3.38;;;11.30;99.90;;;;;;5068303;28;20044;-64
2022/11/08 05:57:35;;;;;;;6.20;2.40;;;11.30;99.90;;;;;;5067110;28;20109;-64
2022/11/08 06:00:02;;;;;;;3.92;2.10;;;11.20;99.90;;;;;;5065714;28;20124;-64
2022/11/08 06:02:31;;;;;;;5.63;2.13;;;11.20;99.90;;;;;;5069379;28;20541;-64
2022/11/08 06:04:57;;;;;;;4.95;2.38;;;11.20;99.90;;;;;;5067337;28;20454;-64
2022/11/08 06:07:23;;;;;;;12.02;2.80;;;11.10;99.90;;;;;;5061347;28;20060;-64
2022/11/08 06:09:48;;;;;;;10.98;3.10;;;11.10;99.90;;;;;;5071128;28;20046;-64
2022/11/08 06:12:14;;;;;;;7.70;2.58;;;11.10;99.90;;;;;;5071139;28;20043;-64
2022/11/08 06:14:40;;;;;;;7.93;3.03;;;11.10;99.90;;;;;;5070307;28;20038;-64
2022/11/08 06:17:05;;;;;;;10.95;3.05;;;11.10;99.90;;;;;;5065725;28;20044;-64
2022/11/08 06:19:31;;;;;;;6.53;3.38;;;11.00;99.90;;;;;;5047226;28;20793;-64
2022/11/08 06:21:56;;;;;;;9.13;2.92;;;11.00;99.90;;;;;;5065931;28;20036;-64
2022/11/08 06:24:22;;;;;;;7.90;3.17;;;11.00;99.90;;;;;;5062386;28;20048;-64
2022/11/08 06:26:47;;;;;;;8.68;3.47;;;11.00;99.90;;;;;;5069112;28;20028;-64
2022/11/08 06:29:13;;;;;;;9.20;3.70;;;11.00;99.90;;;;;;5049901;28;20063;-64
2022/11/08 06:31:39;;;;;;;9.45;3.50;;;11.00;99.90;;;;;;5070322;28;20464;-64
2022/11/08 06:34:04;;;;;;;10.10;3.85;;;11.10;99.90;;;;;;5067047;28;20047;-64
2022/11/08 06:36:30;;;;;;;7.07;3.78;;;11.00;99.90;;;;;;5068682;28;20402;-64
2022/11/08 06:38:55;;;;;;;12.18;4.47;;;11.00;99.90;;;;;;5069115;28;20124;-64
2022/11/08 06:41:22;;;;;;;10.85;4.00;;;11.00;99.90;;;;;;5070304;28;20391;-64
2022/11/08 06:43:48;;;;;;;12.73;4.18;;;11.00;99.90;;;;;;5067954;28;20033;-64
2022/11/08 06:46:14;;;;;;;10.32;4.82;;;11.00;99.90;;;;;;5051113;28;20412;-64
2022/11/08 06:48:40;;;;;;;8.70;4.25;;;11.00;99.90;;;;;;5070570;28;20116;-64
2022/11/08 06:51:05;;;;;;;7.55;3.70;;;10.90;99.90;;;;;;5066913;28;20120;-64
2022/11/08 06:53:32;;;;;;;11.45;4.07;;;11.00;99.90;;;;;;5049959;28;20048;-64
2022/11/08 06:55:59;;;;;;;8.48;3.17;;;11.00;99.90;;;;;;5070259;28;20056;-64
2022/11/08 06:58:24;;;;;;;7.78;3.40;;;11.00;99.90;;;;;;5074180;28;20764;-63
2022/11/08 07:00:50;;;;;;;10.85;3.63;;;11.00;99.90;;;;;;5055640;28;20051;-64
2022/11/08 07:03:16;;;;;;;8.57;3.70;;;11.00;99.90;;;;;;5053305;28;20086;-64
2022/11/08 07:05:41;;;;;;;9.77;3.92;;;11.00;99.90;;;;;;5069080;28;20033;-64
2022/11/08 07:08:07;;;;;;;8.05;3.28;;;11.00;99.90;;;;;;5068533;28;20078;-65
2022/11/08 07:10:33;;;;;;;10.02;3.40;;;11.00;99.90;;;;;;5065546;28;20076;-64
2022/11/08 07:13:05;;;;;;;5.93;3.33;;;11.10;99.90;;;;;;5061892;28;20048;-64
2022/11/08 07:15:32;;;;;;;12.20;3.33;;;11.10;99.90;;;;;;5048139;28;20604;-64
2022/11/08 07:18:10;;;;;;;8.55;3.35;;;11.10;99.90;;;;;;5034514;28;20036;-64
2022/11/08 07:20:36;;;;;;;9.43;3.67;;;11.10;99.90;;;;;;5072944;28;20465;-64
2022/11/08 07:23:02;;;;;;;8.70;3.55;;;11.10;99.90;;;;;;5054386;28;20435;-64
2022/11/08 07:25:28;;;;;;;6.25;3.35;;;11.10;99.90;;;;;;5073243;28;20032;-64
2022/11/08 07:27:59;;;;;;;6.43;3.20;;;11.10;99.90;;;;;;5071369;28;20036;-64
2022/11/08 07:30:25;;;;;;;9.13;3.55;;;11.10;99.90;;;;;;5054395;28;20119;-64
2022/11/08 07:32:51;;;;;;;8.13;2.95;;;11.10;99.90;;;;;;5052110;28;20103;-64
2022/11/08 07:35:17;;;;;;;9.20;3.03;;;11.10;99.90;;;;;;5070602;28;20068;-64
2022/11/08 07:37:43;;;;;;;9.05;2.88;;;11.10;99.90;;;;;;5071658;28;20498;-64
2022/11/08 07:40:10;;;;;;;6.43;3.20;;;11.10;99.90;;;;;;5068791;28;20037;-64
2022/11/08 07:42:36;;;;;;;4.28;2.88;;;11.10;99.90;;;;;;5070582;28;20367;-64
2022/11/08 07:45:03;;;;;;;7.43;2.83;;;11.10;99.90;;;;;;5061132;28;20036;-64
2022/11/08 07:47:28;;;;;;;6.45;2.67;;;11.10;99.90;;;;;;5069247;28;20116;-64
2022/11/08 07:49:54;;;;;;;7.35;2.65;;;11.10;99.90;;;;;;5052612;28;20745;-64
2022/11/08 07:52:19;;;;;;;6.82;2.70;;;11.20;99.90;;;;;;5071118;28;20055;-64
2022/11/08 07:54:45;;;;;;;6.20;2.80;;;11.20;99.90;;;;;;5072439;28;20040;-64
2022/11/08 07:57:11;;;;;;;7.75;2.70;;;11.20;99.90;;;;;;5071464;28;20044;-64
2022/11/08 07:59:36;;;;;;;7.40;2.55;;;11.30;99.90;;;;;;5073288;28;20489;-64
2022/11/08 08:02:02;;;;;;;5.38;2.45;;;11.30;99.90;;;;;;5072431;28;20461;-64
2022/11/08 08:04:28;;;;;;;7.40;2.65;;;11.30;99.90;;;;;;5073537;28;20028;-64
2022/11/08 08:06:54;;;;;;;4.10;2.15;;;11.30;99.90;;;;;;5071520;28;20115;-64
2022/11/08 08:09:20;;;;;;;8.93;2.47;;;11.40;99.90;;;;;;5053478;28;20158;-64
2022/11/08 08:11:45;;;;;;;6.35;2.47;;;11.40;99.90;;;;;;5071899;28;20033;-64
2022/11/08 08:14:11;;;;;;;3.55;2.25;;;11.40;99.90;;;;;;5070634;28;20040;-64
2022/11/08 08:16:37;;;;;;;9.00;2.20;;;11.50;99.90;;;;;;5067329;28;20462;-64
2022/11/08 08:19:03;;;;;;;6.78;2.30;;;11.60;99.90;;;;;;5050346;28;20036;-64
2022/11/08 08:21:29;;;;;;;4.72;2.13;;;11.70;99.90;;;;;;5076621;28;20123;-64
2022/11/08 08:23:54;;;;;;;9.35;2.40;;;11.80;99.90;;;;;;5070517;28;20071;-64
2022/11/08 08:26:20;;;;;;;5.95;2.28;;;11.90;99.90;;;;;;5071455;28;20115;-64
2022/11/08 08:28:45;;;;;;;3.70;2.00;;;12.00;99.90;;;;;;5072304;28;20029;-64
2022/11/08 08:31:11;;;;;;;4.88;2.20;;;12.10;99.90;;;;;;5071967;28;20131;-64
2022/11/08 08:33:37;;;;;;;3.92;1.85;;;12.10;99.90;;;;;;5069995;28;20123;-65
2022/11/08 08:36:03;;;;;;;6.65;2.40;;;12.20;99.90;;;;;;5072735;28;20091;-64
2022/11/08 08:38:30;;;;;;;7.03;1.95;;;12.30;99.90;;;;;;5077672;28;20089;-64
2022/11/08 08:40:56;;;;;;;6.63;2.40;;;12.40;99.90;;;;;;5071345;28;20044;-64
2022/11/08 08:43:22;;;;;;;5.60;1.95;;;12.50;99.90;;;;;;5071902;28;20041;-64
2022/11/08 08:45:48;;;;;;;6.35;1.90;;;12.60;99.90;;;;;;5049299;28;20033;-64
2022/11/08 08:48:14;;;;;;;3.88;2.22;;;12.60;99.90;;;;;;5067834;28;20032;-64
2022/11/08 08:50:39;;;;;;;7.03;2.20;;;12.70;99.90;;;;;;5071642;28;20039;-64
2022/11/08 08:53:05;;;;;;;5.45;1.63;;;12.70;99.90;;;;;;5071537;28;20115;-64
2022/11/08 08:55:34;;;;;;;8.57;2.30;;;12.80;99.90;;;;;;5071138;28;20035;-64
2022/11/08 08:57:59;;;;;;;5.75;1.90;;;12.80;99.90;;;;;;5070835;28;20037;-64
2022/11/08 09:00:25;;;;;;;5.35;1.90;;;12.80;99.90;;;;;;5068643;28;20044;-64
2022/11/08 09:02:51;;;;;;;5.10;1.88;;;12.80;99.90;;;;;;5070217;28;20307;-64
2022/11/08 09:05:17;;;;;;;4.45;1.95;;;12.90;99.90;;;;;;5070544;28;20036;-65
2022/11/08 09:07:43;;;;;;;5.25;1.88;;;12.90;99.90;;;;;;5072066;28;20048;-65
2022/11/08 09:10:09;;;;;;;5.13;1.83;;;13.00;99.90;;;;;;5070904;28;20385;-65
2022/11/08 09:12:35;;;;;;;4.35;1.92;;;13.20;99.90;;;;;;5070839;28;20440;-65
2022/11/08 09:15:01;;;;;;;3.30;1.90;;;13.20;99.90;;;;;;5069495;28;20060;-65
2022/11/08 09:17:28;;;;;;;4.28;1.70;;;13.30;99.90;;;;;;5064724;28;20113;-65
2022/11/08 09:19:54;;;;;;;4.10;1.45;;;13.50;99.90;;;;;;5049094;28;20698;-65
2022/11/08 09:22:20;;;;;;;3.45;1.85;;;13.50;99.90;;;;;;5050063;28;20045;-65
2022/11/08 09:24:46;;;;;;;4.60;2.15;;;13.60;99.90;;;;;;5070663;28;20055;-64
2022/11/08 09:27:11;;;;;;;3.75;1.67;;;13.60;99.90;;;;;;5051242;28;20182;-65
2022/11/08 09:29:37;;;;;;;4.63;1.73;;;13.60;99.90;;;;;;5071062;28;20040;-65
2022/11/08 09:32:03;;;;;;;3.80;1.77;;;13.60;99.90;;;;;;5070780;28;20068;-65
2022/11/08 09:34:28;;;;;;;6.68;2.00;;;13.70;99.90;;;;;;5061483;28;20032;-65
2022/11/08 09:36:54;;;;;;;5.43;2.00;;;13.70;99.90;;;;;;5070142;28;20070;-65
2022/11/08 09:39:20;;;;;;;6.95;2.10;;;13.80;99.90;;;;;;5071167;28;20033;-65
2022/11/08 09:42:13;;;;;;;4.68;1.90;;;13.90;99.90;;;;;;5049750;28;20120;-65
2022/11/08 09:45:08;;;;;;;3.85;2.10;;;13.90;99.90;;;;;;5054157;28;20050;-65
2022/11/08 09:47:40;;;;;;;3.55;1.50;;;14.00;99.90;;;;;;5060004;28;20029;-65
2022/11/08 09:50:24;;;;;;;3.65;1.85;;;14.00;99.90;;;;;;5063462;28;20043;-64
2022/11/08 09:53:05;;;;;;;3.83;1.58;;;14.00;99.90;;;;;;5064857;28;20048;-65
2022/11/08 09:55:35;;;;;;;;;;;14.10;99.90;;;;;;5062530;28;20040;-65
2022/11/08 09:58:04;;;;;;;6.13;1.70;;;14.00;99.90;;;;;;5070900;28;19916;-65
2022/11/08 10:00:30;;;;;;;4.32;1.77;;;14.00;99.90;;;;;;5067429;28;20045;-64
2022/11/08 10:02:56;;;;;;;3.47;1.58;;;14.00;99.90;;;;;;5067938;28;20371;-65
2022/11/08 10:05:22;;;;;;;3.95;1.58;;;14.00;99.90;;;;;;5066276;28;20035;-65
2022/11/08 10:08:23;;;;;;;6.10;1.73;;;14.00;99.90;;;;;;5065702;28;20029;-65
2022/11/08 10:11:11;;;;;;;5.43;1.90;;;14.00;99.90;;;;;;5067635;28;20048;-65
2022/11/08 10:13:41;;;;;;;4.60;1.98;;;14.00;99.90;;;;;;5062652;28;20376;-65
2022/11/08 10:16:28;;;;;;;3.33;2.03;;;14.10;99.90;;;;;;5067528;28;20081;-65
2022/11/08 10:19:06;;;;;;;3.05;2.03;;;14.10;99.90;;;;;;5064238;28;20326;-65
2022/11/08 10:22:07;;;;;;;4.00;1.90;;;14.10;99.90;;;;;;5064555;28;20028;-64
2022/11/08 10:24:39;;;;;;;4.35;2.05;;;14.10;99.90;;;;;;5049222;28;20115;-65
2022/11/08 10:27:15;;;;;;;3.55;1.88;;;14.10;99.90;;;;;;5066611;28;20055;-65
2022/11/08 10:29:43;;;;;;;4.85;1.92;;;14.10;99.90;;;;;;5063117;28;20067;-65
2022/11/08 10:32:22;;;;;;;4.72;2.40;;;14.20;99.90;;;;;;5067720;28;20729;-65
2022/11/08 10:35:04;;;;;;;5.72;2.00;;;14.10;99.90;;;;;;5069930;28;20043;-65
2022/11/08 10:37:32;;;;;;;4.22;2.00;;;14.10;99.90;;;;;;5065640;28;20040;-65
2022/11/08 10:40:19;;;;;;;2.95;1.70;;;14.20;99.90;;;;;;5072853;28;20036;-65
2022/11/08 10:43:07;;;;;;;5.22;1.80;;;14.10;99.90;;;;;;5047615;28;20529;-65
2022/11/08 10:45:32;;;;;;;4.30;2.08;;;14.10;99.90;;;;;;5071702;28;20048;-65
2022/11/08 10:47:58;;;;;;;4.78;1.70;;;14.10;99.90;;;;;;5073953;28;20040;-65
2022/11/08 10:50:38;;;;;;;5.40;2.17;;;14.20;99.90;;;;;;5073388;28;20112;-65
2022/11/08 10:53:10;;;;;;;2.95;1.67;;;14.10;99.90;;;;;;5071881;28;20032;-65
2022/11/08 10:55:46;;;;;;;3.40;1.77;;;14.10;99.90;;;;;;5068485;28;20119;-65
2022/11/08 10:58:30;;;;;;;3.28;2.25;;;14.10;99.90;;;;;;5071382;28;20505;-65
2022/11/08 11:01:00;;;;;;;3.65;1.90;;;14.00;99.90;;;;;;5071973;28;20098;-65
2022/11/08 11:03:29;;;;;;;4.70;2.10;;;14.00;99.90;;;;;;5067264;28;20158;-65
2022/11/08 11:06:20;;;;;;;3.28;1.92;;;14.00;99.90;;;;;;5063680;28;20040;-65
2022/11/08 11:08:53;;;;;;;5.90;2.10;;;14.10;99.90;;;;;;5054576;28;20490;-65
2022/11/08 11:11:34;;;;;;;5.82;2.10;;;14.10;99.90;;;;;;5071263;28;20079;-65
2022/11/08 11:14:07;;;;;;;3.83;2.10;;;14.10;99.90;;;;;;5065374;28;20036;-65
2022/11/08 11:16:35;;;;;;;3.22;1.90;;;14.00;99.90;;;;;;5065351;28;20165;-64
2022/11/08 11:19:05;;;;;;;3.95;2.03;;;14.10;99.90;;;;;;5070557;28;20090;-65
2022/11/08 11:21:38;;;;;;;3.78;1.88;;;14.10;99.90;;;;;;5072951;28;20086;-65
2022/11/08 11:24:10;;;;;;;4.47;1.90;;;14.20;99.90;;;;;;5053491;28;20501;-64
2022/11/08 11:26:45;;;;;;;4.20;2.00;;;14.30;99.90;;;;;;5069976;28;20040;-65
2022/11/08 11:29:16;;;;;;;5.32;2.20;;;14.30;99.90;;;;;;5068971;28;20040;-64
2022/11/08 11:31:44;;;;;;;2.80;2.15;;;14.30;99.90;;;;;;5055067;28;20551;-65
2022/11/08 11:34:16;;;;;;;4.55;1.83;;;14.20;99.90;;;;;;5071339;28;20429;-65
2022/11/08 11:37:05;;;;;;;4.57;2.00;;;14.40;99.90;;;;;;5069378;28;20044;-65
2022/11/08 11:39:48;;;;;;;4.22;1.83;;;14.50;99.90;;;;;;5065740;28;20478;-65
2022/11/08 11:42:20;;;;;;;4.57;1.90;;;14.50;99.90;;;;;;5063053;28;20041;-65
2022/11/08 11:45:07;;;;;;;3.15;1.63;;;14.50;99.90;;;;;;5073110;28;20445;-65
2022/11/08 11:47:49;;;;;;;4.85;2.00;;;14.50;99.90;;;;;;5066379;28;20461;-65
2022/11/08 11:50:35;;;;;;;4.53;2.08;;;14.60;99.90;;;;;;5069378;28;20044;-65
2022/11/08 11:53:13;;;;;;;4.30;1.90;;;14.60;99.90;;;;;;5048903;28;20127;-65
2022/11/08 11:56:02;;;;;;;6.38;2.42;;;14.60;99.90;;;;;;5050008;28;20048;-65
2022/11/08 11:58:34;;;;;;;5.95;2.20;;;14.70;99.90;;;;;;5070668;28;20082;-65
2022/11/08 12:01:38;;;;;;;5.10;1.92;;;14.60;99.90;;;;;;5072472;28;20036;-65
2022/11/08 12:04:21;;;;;;;4.10;1.75;;;14.70;99.90;;;;;;5070098;28;20510;-65
2022/11/08 12:07:05;;;;;;;3.63;2.00;;;14.70;99.90;;;;;;5070520;28;20037;-65
2022/11/08 12:09:44;;;;;;;4.85;2.10;;;14.60;99.90;;;;;;5056157;28;20048;-65
2022/11/08 12:12:43;;;;;;;3.85;2.00;;;14.60;99.90;;;;;;5070440;28;20045;-65
2022/11/08 12:15:43;;;;;;;3.78;2.10;;;14.70;99.90;;;;;;5044805;28;20498;-65
2022/11/08 12:18:36;;;;;;;4.82;1.95;;;14.70;99.90;;;;;;5069142;28;20171;-65
2022/11/08 12:21:16;;;;;;;4.43;1.85;;;14.80;99.90;;;;;;5070703;28;20498;-65
2022/11/08 12:23:53;;;;;;;4.07;1.90;;;14.80;99.90;;;;;;5072256;28;20033;-65
2022/11/08 12:26:25;;;;;;;5.10;1.80;;;14.80;99.90;;;;;;5069642;28;20037;-65
2022/11/08 12:29:17;;;;;;;3.95;2.38;;;14.80;99.90;;;;;;5053320;28;20068;-66
2022/11/08 12:32:04;;;;;;;4.88;1.90;;;14.90;99.90;;;;;;5064700;28;20120;-65
2022/11/08 12:34:41;;;;;;;3.95;1.80;;;14.80;99.90;;;;;;5046085;28;20039;-66
2022/11/08 12:37:31;;;;;;;1.92;1.48;;;14.80;99.90;;;;;;5071819;28;20044;-65
2022/11/08 12:40:00;;;;;;;3.58;2.10;;;14.80;99.90;;;;;;5050139;28;20044;-65
2022/11/08 12:42:34;;;;;;;4.07;2.20;;;14.70;99.90;;;;;;5051038;28;20055;-65
2022/11/08 12:45:30;;;;;;;4.63;1.98;;;14.70;99.90;;;;;;5068027;28;20386;-65
2022/11/08 12:47:59;;;;;;;5.97;1.92;;;14.70;99.90;;;;;;5062115;28;20797;-65
2022/11/08 12:50:51;;;;;;;4.80;2.00;;;14.60;99.90;;;;;;5067844;28;20155;-64
2022/11/08 12:53:39;;;;;;;5.50;1.88;;;14.60;99.90;;;;;;5067917;28;20072;-64
2022/11/08 12:56:13;;;;;;;3.13;1.77;;;14.60;99.90;;;;;;5064477;28;20359;-65
2022/11/08 12:58:46;;;;;;;3.50;2.00;;;14.60;99.90;;;;;;5066083;28;20571;-64
2022/11/08 13:01:14;;;;;;;3.17;1.80;;;14.70;99.90;;;;;;5053955;28;20040;-64
2022/11/08 13:03:48;;;;;;;4.80;2.00;;;14.70;99.90;;;;;;5047152;28;20032;-65
2022/11/08 13:06:30;;;;;;;5.45;1.77;;;14.90;99.90;;;;;;5049450;28;20040;-64
2022/11/08 13:09:19;;;;;;;4.43;2.10;;;15.00;99.90;;;;;;5068934;28;20136;-65
2022/11/08 13:11:51;;;;;;;3.95;1.60;;;15.10;99.90;;;;;;5063364;28;20059;-64
2022/11/08 13:14:19;;;;;;;3.45;1.45;;;15.30;99.90;;;;;;5066359;28;20055;-65
2022/11/08 13:17:07;;;;;;;3.90;1.90;;;15.30;99.90;;;;;;5053049;28;20036;-65